Cedar Point, North Carolina
Current Conditions -  °F | °C
As of 4:57 PM on Friday 19 Dec 2014 (Local Time) from KNJM Reporting Station
Clear Clear  
Wind Chill: 47°   Ceiling: Unl
Heat Index: 47°   Visibility: 10mi
Dew Point: 38°   Wind: 0mph
Humidity: 71%   Direction: NA
Pressure: 30.14"   Gusts: NA
Location:  34.7017°N, 77.1399°W
Report Text: KNJM 192157Z AUTO 00000KT 10SM CLR 08/03 A3014 RMK AO2 SLP211 T00830033 $
Loading
Personal Weather Stations






























Interactive Weather Map New forecast layout! Learn more

10-Day Weather Forecast

Advertisements
Track Severe Weather on mobile